Grand Adventure — WDH4338 — position and weather

sailwx.info

Track history (hours):
 
Tides and Currents Weather Stations Pressure Air Temp Water Temp Dewpoint Dewpoint Depression Visibility Wind Speed Wind Dir Waves Ship Positions

Grand Adventure

Owner: Bender, David E, Edgewood, WA. More information available from US FCC via Universal Licensing System and Coast Guard Vessel Documentation Center.

Last reported at 2017-Dec-15 22:43 UTC. Time now 2018-Feb-20 15:16 UTC.
Position N 47°19' W 122°26'.
Warning: this ship's position is months out of date.

Length 18 m; draft 2 m.

Type: Pleasure craft. MMSI: 367616680.

Date/timePositionNaut miles runAvg speedWind from/ knotsBaromVisibWave heightAir tempDewpointWater temp
2017-Dec-15 22:43N 47°19' W 122°26'2 7.9
2017-Dec-15 22:30N 47°20' W 122°24'4 7.7
2017-Dec-15 22:00N 47°23' W 122°20'4 7.5
2017-Dec-15 21:30N 47°27' W 122°23'4 8.3
2017-Dec-15 21:00N 47°31' W 122°24'5 8.3
2017-Dec-15 20:27N 47°35' W 122°26'4 8.2
2017-Dec-15 20:00N 47°39' W 122°26'2 4.3
2017-Dec-15 19:30N 47°40' W 122°24'2 4.1
2017-Dec-15 19:00N 47°39' W 122°21'  
2017-Dec-13 14:40N 47°38' W 122°20'0 0.0
2017-Dec-13 14:25N 47°38' W 122°20'0 0.0
2017-Dec-13 13:58N 47°38' W 122°20'0 0.0
2017-Dec-13 13:28N 47°38' W 122°20'0 0.0
2017-Dec-13 12:58N 47°38' W 122°20'0 0.0
2017-Dec-13 12:28N 47°38' W 122°20'0 0.0
2017-Dec-13 11:58N 47°38' W 122°20'0 0.0
2017-Dec-13 11:28N 47°38' W 122°20'0 0.0
2017-Dec-13 10:58N 47°38' W 122°20'0 0.0
2017-Dec-13 10:28N 47°38' W 122°20'0 0.0
2017-Dec-13 09:58N 47°38' W 122°20'0 0.0
2017-Dec-13 09:28N 47°38' W 122°20'0 0.0
2017-Dec-13 08:58N 47°38' W 122°20'0 0.0
2017-Dec-13 08:28N 47°38' W 122°20'0 0.0
2017-Dec-13 07:58N 47°38' W 122°20'0 0.0
2017-Dec-13 07:22N 47°38' W 122°20'0 0.0
2017-Dec-13 06:55N 47°38' W 122°20'0 0.0
2017-Dec-12 23:37N 47°38' W 122°20'0 0.0
2017-Dec-12 23:28N 47°38' W 122°20'0 0.0
2017-Dec-12 22:58N 47°38' W 122°20'0 0.0
2017-Dec-12 21:37N 47°38' W 122°20'0 0.0
2017-Dec-12 21:22N 47°38' W 122°20'0 0.0
2017-Dec-12 20:58N 47°38' W 122°20'0 0.0
2017-Dec-12 20:25N 47°38' W 122°20'0 0.0
2017-Dec-12 19:58N 47°38' W 122°20'0 0.0
2017-Dec-12 19:28N 47°38' W 122°20'0 0.0
2017-Dec-12 18:58N 47°38' W 122°20'0 0.0
2017-Dec-12 18:28N 47°38' W 122°20'0 0.0
2017-Dec-12 17:58N 47°38' W 122°20'0 0.0
2017-Dec-12 14:19N 47°38' W 122°20'0 0.0
2017-Dec-12 13:58N 47°38' W 122°20'0 0.0
2017-Dec-12 13:28N 47°38' W 122°20'0 0.0
2017-Dec-12 12:58N 47°38' W 122°20'0 0.0
2017-Dec-12 12:28N 47°38' W 122°20'0 0.0
2017-Dec-12 11:58N 47°38' W 122°20'0 0.0
2017-Dec-12 11:28N 47°38' W 122°20'0 0.0
2017-Dec-12 10:52N 47°38' W 122°20'0 0.0
2017-Dec-12 10:28N 47°38' W 122°20'0 0.0
2017-Dec-12 09:58N 47°38' W 122°20'0 0.0
2017-Dec-12 09:19N 47°38' W 122°20'0 0.0
2017-Dec-12 08:58N 47°38' W 122°20'0 0.0
2017-Dec-12 08:22N 47°38' W 122°20'0 0.0
2017-Dec-12 07:55N 47°38' W 122°20'0 0.0
2017-Dec-11 23:25N 47°38' W 122°20'0 0.0
2017-Dec-11 21:40N 47°38' W 122°20'0 0.0
2017-Dec-11 21:25N 47°38' W 122°20'0 0.0
2017-Dec-11 20:58N 47°38' W 122°20'0 0.0
2017-Dec-11 20:28N 47°38' W 122°20'0 0.0
2017-Dec-11 19:58N 47°38' W 122°20'0 0.0
2017-Dec-11 19:28N 47°38' W 122°20'0 0.0
2017-Dec-11 18:55N 47°38' W 122°20'0 0.0
2017-Dec-11 18:28N 47°38' W 122°20'0 0.0
2017-Dec-11 15:43N 47°38' W 122°20'0 0.0
2017-Dec-11 13:49N 47°38' W 122°20'0 0.0
2017-Dec-11 13:28N 47°38' W 122°20'0 0.0
2017-Dec-11 12:58N 47°38' W 122°20'0 0.0
2017-Dec-11 12:28N 47°38' W 122°20'0 0.0
2017-Dec-11 11:58N 47°38' W 122°20'0 0.0
2017-Dec-11 11:28N 47°38' W 122°20'0 0.0
2017-Dec-11 10:58N 47°38' W 122°20'0 0.0
2017-Dec-11 10:28N 47°38' W 122°20'0 0.0
2017-Dec-11 09:58N 47°38' W 122°20'0 0.0
2017-Dec-11 09:28N 47°38' W 122°20'0 0.0
2017-Dec-11 08:58N 47°38' W 122°20'0 0.0
2017-Dec-11 08:28N 47°38' W 122°20'0 0.0
2017-Dec-11 07:58N 47°38' W 122°20'0 0.0
2017-Dec-11 07:25N 47°38' W 122°20'0 0.0
2017-Dec-11 06:58N 47°38' W 122°20'0 0.0
2017-Dec-10 14:31N 47°38' W 122°20'0 0.0
2017-Dec-10 14:25N 47°38' W 122°20'0 0.0
2017-Dec-10 13:58N 47°38' W 122°20'0 0.0
2017-Dec-10 13:28N 47°38' W 122°20'0 0.0
2017-Dec-10 12:58N 47°38' W 122°20'0 0.0
2017-Dec-10 12:28N 47°38' W 122°20'0 0.0
2017-Dec-10 11:58N 47°38' W 122°20'0 0.0
2017-Dec-10 11:28N 47°38' W 122°20'0 0.0
2017-Dec-10 10:58N 47°38' W 122°20'0 0.0
2017-Dec-10 10:28N 47°38' W 122°20'0 0.0
2017-Dec-10 09:58N 47°38' W 122°20'0 0.0
2017-Dec-10 09:25N 47°38' W 122°20'0 0.0
2017-Dec-10 08:58N 47°38' W 122°20'0 0.0
2017-Dec-10 08:28N 47°38' W 122°20'0 0.0
2017-Dec-10 07:13N 47°38' W 122°20'0 0.0
2017-Dec-10 06:58N 47°38' W 122°20'0 0.0
2017-Dec-10 06:28N 47°38' W 122°20'0 0.0
2017-Dec-09 21:40N 47°38' W 122°20'0 0.0
2017-Dec-09 21:25N 47°38' W 122°20'0 0.0
2017-Dec-09 17:34N 47°38' W 122°20'0 0.0
2017-Dec-09 17:28N 47°38' W 122°20'0 0.0
2017-Dec-09 14:16N 47°38' W 122°20'0 0.0
2017-Dec-09 13:58N 47°38' W 122°20'0 0.0
2017-Dec-09 13:28N 47°38' W 122°20'0 0.0
2017-Dec-09 12:55N 47°38' W 122°20'0 0.0
2017-Dec-09 12:28N 47°38' W 122°20'0 0.0
2017-Dec-09 11:58N 47°38' W 122°20'0 0.0
2017-Dec-09 11:28N 47°38' W 122°20'0 0.0
2017-Dec-09 10:58N 47°38' W 122°20'0 0.0
2017-Dec-09 10:28N 47°38' W 122°20'0 0.0
2017-Dec-09 09:58N 47°38' W 122°20'0 0.0
2017-Dec-09 09:28N 47°38' W 122°20'0 0.0
2017-Dec-09 08:58N 47°38' W 122°20'0 0.0
2017-Dec-09 08:25N 47°38' W 122°20'0 0.0
2017-Dec-09 07:58N 47°38' W 122°20'0 0.0
2017-Dec-09 07:25N 47°38' W 122°20'0 0.0
2017-Dec-08 21:16N 47°38' W 122°20'0 0.0
2017-Dec-08 20:58N 47°38' W 122°20'0 0.0
2017-Dec-08 20:28N 47°38' W 122°20'0 0.0
2017-Dec-08 19:58N 47°38' W 122°20'0 0.0
2017-Dec-08 19:28N 47°38' W 122°20'0 0.0
2017-Dec-08 18:58N 47°38' W 122°20'0 0.0
2017-Dec-08 14:34N 47°38' W 122°20'0 0.0
2017-Dec-08 14:25N 47°38' W 122°20'0 0.0
2017-Dec-08 13:58N 47°38' W 122°20'0 0.0
2017-Dec-08 13:28N 47°38' W 122°20'0 0.0
2017-Dec-08 12:58N 47°38' W 122°20'0 0.0
2017-Dec-08 12:28N 47°38' W 122°20'0 0.0
2017-Dec-08 11:58N 47°38' W 122°20'0 0.0
2017-Dec-08 11:28N 47°38' W 122°20'0 0.0
2017-Dec-08 10:58N 47°38' W 122°20'0 0.0
2017-Dec-08 10:28N 47°38' W 122°20'0 0.0
2017-Dec-08 09:58N 47°38' W 122°20'0 0.0
2017-Dec-08 09:28N 47°38' W 122°20'0 0.0
2017-Dec-08 08:55N 47°38' W 122°20'0 0.0
2017-Dec-08 08:28N 47°38' W 122°20'0 0.0
2017-Dec-08 07:58N 47°38' W 122°20'0 0.0
2017-Dec-08 07:28N 47°38' W 122°20'0 0.0
2017-Dec-07 23:37N 47°38' W 122°20'0 0.0
2017-Dec-07 23:28N 47°38' W 122°20'0 0.0
2017-Dec-07 22:58N 47°38' W 122°20'0 0.0
2017-Dec-07 21:01N 47°38' W 122°20'0 0.0
2017-Dec-07 20:58N 47°38' W 122°20'0 0.0
2017-Dec-07 20:28N 47°38' W 122°20'0 0.0
2017-Dec-07 19:58N 47°38' W 122°20'0 0.0
2017-Dec-07 19:28N 47°38' W 122°20'0 0.0
2017-Dec-07 18:58N 47°38' W 122°20'0 0.0
2017-Dec-07 18:10N 47°38' W 122°20'0 0.0
2017-Dec-07 17:58N 47°38' W 122°20'0 0.0
2017-Dec-07 13:49N 47°38' W 122°20'0 0.0
2017-Dec-07 13:28N 47°38' W 122°20'0 0.0
2017-Dec-07 12:58N 47°38' W 122°20'0 0.0
2017-Dec-07 12:28N 47°38' W 122°20'0 0.0
2017-Dec-07 11:55N 47°38' W 122°20'0 0.0
2017-Dec-07 11:25N 47°38' W 122°20'0 0.0
2017-Dec-07 10:58N 47°38' W 122°20'0 0.0
2017-Dec-07 10:28N 47°38' W 122°20'0 0.0
2017-Dec-07 09:58N 47°38' W 122°20'0 0.0
2017-Dec-07 09:28N 47°38' W 122°20'0 0.0
2017-Dec-07 08:58N 47°38' W 122°20'0 0.0
2017-Dec-07 08:28N 47°38' W 122°20'0 0.0
2017-Dec-07 07:55N 47°38' W 122°20'0 0.0
2017-Dec-07 07:28N 47°38' W 122°20'0 0.0
2017-Dec-07 06:58N 47°38' W 122°20'0 0.0
2017-Dec-06 23:43N 47°38' W 122°20'0 0.0
2017-Dec-06 23:28N 47°38' W 122°20'0 0.0
2017-Dec-06 22:58N 47°38' W 122°20'0 0.0
2017-Dec-06 22:28N 47°38' W 122°20'0 0.0
2017-Dec-06 21:58N 47°38' W 122°20'  
Track history (hours):
 
Tides and Currents Weather Stations Pressure Air Temp Water Temp Dewpoint Dewpoint Depression Visibility Wind Speed Wind Dir Waves Ship Positions

Grand Adventure

Owner: Bender, David E, Edgewood, WA. More information available from US FCC via Universal Licensing System and Coast Guard Vessel Documentation Center.

Last reported at 2017-Dec-15 22:43 UTC. Time now 2018-Feb-20 15:16 UTC.
Position N 47°19' W 122°26'.
Warning: this ship's position is months out of date.

Length 18 m; draft 2 m.

Type: Pleasure craft. MMSI: 367616680.

Date/timePositionNaut miles runAvg speedWind from/ knotsBaromVisibWave heightAir tempDewpointWater temp
2017-Dec-15 22:43N 47°19' W 122°26'2 7.9
2017-Dec-15 22:30N 47°20' W 122°24'4 7.7
2017-Dec-15 22:00N 47°23' W 122°20'4 7.5
2017-Dec-15 21:30N 47°27' W 122°23'4 8.3
2017-Dec-15 21:00N 47°31' W 122°24'5 8.3
2017-Dec-15 20:27N 47°35' W 122°26'4 8.2
2017-Dec-15 20:00N 47°39' W 122°26'2 4.3
2017-Dec-15 19:30N 47°40' W 122°24'2 4.1
2017-Dec-15 19:00N 47°39' W 122°21'  
2017-Dec-13 14:40N 47°38' W 122°20'0 0.0
2017-Dec-13 14:25N 47°38' W 122°20'0 0.0
2017-Dec-13 13:58N 47°38' W 122°20'0 0.0
2017-Dec-13 13:28N 47°38' W 122°20'0 0.0
2017-Dec-13 12:58N 47°38' W 122°20'0 0.0
2017-Dec-13 12:28N 47°38' W 122°20'0 0.0
2017-Dec-13 11:58N 47°38' W 122°20'0 0.0
2017-Dec-13 11:28N 47°38' W 122°20'0 0.0
2017-Dec-13 10:58N 47°38' W 122°20'0 0.0
2017-Dec-13 10:28N 47°38' W 122°20'0 0.0
2017-Dec-13 09:58N 47°38' W 122°20'0 0.0
2017-Dec-13 09:28N 47°38' W 122°20'0 0.0
2017-Dec-13 08:58N 47°38' W 122°20'0 0.0
2017-Dec-13 08:28N 47°38' W 122°20'0 0.0
2017-Dec-13 07:58N 47°38' W 122°20'0 0.0
2017-Dec-13 07:22N 47°38' W 122°20'0 0.0
2017-Dec-13 06:55N 47°38' W 122°20'0 0.0
2017-Dec-12 23:37N 47°38' W 122°20'0 0.0
2017-Dec-12 23:28N 47°38' W 122°20'0 0.0
2017-Dec-12 22:58N 47°38' W 122°20'0 0.0
2017-Dec-12 21:37N 47°38' W 122°20'0 0.0
2017-Dec-12 21:22N 47°38' W 122°20'0 0.0
2017-Dec-12 20:58N 47°38' W 122°20'0 0.0
2017-Dec-12 20:25N 47°38' W 122°20'0 0.0
2017-Dec-12 19:58N 47°38' W 122°20'0 0.0
2017-Dec-12 19:28N 47°38' W 122°20'0 0.0
2017-Dec-12 18:58N 47°38' W 122°20'0 0.0
2017-Dec-12 18:28N 47°38' W 122°20'0 0.0
2017-Dec-12 17:58N 47°38' W 122°20'0 0.0
2017-Dec-12 14:19N 47°38' W 122°20'0 0.0
2017-Dec-12 13:58N 47°38' W 122°20'0 0.0
2017-Dec-12 13:28N 47°38' W 122°20'0 0.0
2017-Dec-12 12:58N 47°38' W 122°20'0 0.0
2017-Dec-12 12:28N 47°38' W 122°20'0 0.0
2017-Dec-12 11:58N 47°38' W 122°20'0 0.0
2017-Dec-12 11:28N 47°38' W 122°20'0 0.0
2017-Dec-12 10:52N 47°38' W 122°20'0 0.0
2017-Dec-12 10:28N 47°38' W 122°20'0 0.0
2017-Dec-12 09:58N 47°38' W 122°20'0 0.0
2017-Dec-12 09:19N 47°38' W 122°20'0 0.0
2017-Dec-12 08:58N 47°38' W 122°20'0 0.0
2017-Dec-12 08:22N 47°38' W 122°20'0 0.0
2017-Dec-12 07:55N 47°38' W 122°20'0 0.0
2017-Dec-11 23:25N 47°38' W 122°20'0 0.0
2017-Dec-11 21:40N 47°38' W 122°20'0 0.0
2017-Dec-11 21:25N 47°38' W 122°20'0 0.0
2017-Dec-11 20:58N 47°38' W 122°20'0 0.0
2017-Dec-11 20:28N 47°38' W 122°20'0 0.0
2017-Dec-11 19:58N 47°38' W 122°20'0 0.0
2017-Dec-11 19:28N 47°38' W 122°20'0 0.0
2017-Dec-11 18:55N 47°38' W 122°20'0 0.0
2017-Dec-11 18:28N 47°38' W 122°20'0 0.0
2017-Dec-11 15:43N 47°38' W 122°20'0 0.0
2017-Dec-11 13:49N 47°38' W 122°20'0 0.0
2017-Dec-11 13:28N 47°38' W 122°20'0 0.0
2017-Dec-11 12:58N 47°38' W 122°20'0 0.0
2017-Dec-11 12:28N 47°38' W 122°20'0 0.0
2017-Dec-11 11:58N 47°38' W 122°20'0 0.0
2017-Dec-11 11:28N 47°38' W 122°20'0 0.0
2017-Dec-11 10:58N 47°38' W 122°20'0 0.0
2017-Dec-11 10:28N 47°38' W 122°20'0 0.0
2017-Dec-11 09:58N 47°38' W 122°20'0 0.0
2017-Dec-11 09:28N 47°38' W 122°20'0 0.0
2017-Dec-11 08:58N 47°38' W 122°20'0 0.0
2017-Dec-11 08:28N 47°38' W 122°20'0 0.0
2017-Dec-11 07:58N 47°38' W 122°20'0 0.0
2017-Dec-11 07:25N 47°38' W 122°20'0 0.0
2017-Dec-11 06:58N 47°38' W 122°20'0 0.0
2017-Dec-10 14:31N 47°38' W 122°20'0 0.0
2017-Dec-10 14:25N 47°38' W 122°20'0 0.0
2017-Dec-10 13:58N 47°38' W 122°20'0 0.0
2017-Dec-10 13:28N 47°38' W 122°20'0 0.0
2017-Dec-10 12:58N 47°38' W 122°20'0 0.0
2017-Dec-10 12:28N 47°38' W 122°20'0 0.0
2017-Dec-10 11:58N 47°38' W 122°20'0 0.0
2017-Dec-10 11:28N 47°38' W 122°20'0 0.0
2017-Dec-10 10:58N 47°38' W 122°20'0 0.0
2017-Dec-10 10:28N 47°38' W 122°20'0 0.0
2017-Dec-10 09:58N 47°38' W 122°20'0 0.0
2017-Dec-10 09:25N 47°38' W 122°20'0 0.0
2017-Dec-10 08:58N 47°38' W 122°20'0 0.0
2017-Dec-10 08:28N 47°38' W 122°20'0 0.0
2017-Dec-10 07:13N 47°38' W 122°20'0 0.0
2017-Dec-10 06:58N 47°38' W 122°20'0 0.0
2017-Dec-10 06:28N 47°38' W 122°20'0 0.0
2017-Dec-09 21:40N 47°38' W 122°20'0 0.0
2017-Dec-09 21:25N 47°38' W 122°20'0 0.0
2017-Dec-09 17:34N 47°38' W 122°20'0 0.0
2017-Dec-09 17:28N 47°38' W 122°20'0 0.0
2017-Dec-09 14:16N 47°38' W 122°20'0 0.0
2017-Dec-09 13:58N 47°38' W 122°20'0 0.0
2017-Dec-09 13:28N 47°38' W 122°20'0 0.0
2017-Dec-09 12:55N 47°38' W 122°20'0 0.0
2017-Dec-09 12:28N 47°38' W 122°20'0 0.0
2017-Dec-09 11:58N 47°38' W 122°20'0 0.0
2017-Dec-09 11:28N 47°38' W 122°20'0 0.0
2017-Dec-09 10:58N 47°38' W 122°20'0 0.0
2017-Dec-09 10:28N 47°38' W 122°20'0 0.0
2017-Dec-09 09:58N 47°38' W 122°20'0 0.0
2017-Dec-09 09:28N 47°38' W 122°20'0 0.0
2017-Dec-09 08:58N 47°38' W 122°20'0 0.0
2017-Dec-09 08:25N 47°38' W 122°20'0 0.0
2017-Dec-09 07:58N 47°38' W 122°20'0 0.0
2017-Dec-09 07:25N 47°38' W 122°20'0 0.0
2017-Dec-08 21:16N 47°38' W 122°20'0 0.0
2017-Dec-08 20:58N 47°38' W 122°20'0 0.0
2017-Dec-08 20:28N 47°38' W 122°20'0 0.0
2017-Dec-08 19:58N 47°38' W 122°20'0 0.0
2017-Dec-08 19:28N 47°38' W 122°20'0 0.0
2017-Dec-08 18:58N 47°38' W 122°20'0 0.0
2017-Dec-08 14:34N 47°38' W 122°20'0 0.0
2017-Dec-08 14:25N 47°38' W 122°20'0 0.0
2017-Dec-08 13:58N 47°38' W 122°20'0 0.0
2017-Dec-08 13:28N 47°38' W 122°20'0 0.0
2017-Dec-08 12:58N 47°38' W 122°20'0 0.0
2017-Dec-08 12:28N 47°38' W 122°20'0 0.0
2017-Dec-08 11:58N 47°38' W 122°20'0 0.0
2017-Dec-08 11:28N 47°38' W 122°20'0 0.0
2017-Dec-08 10:58N 47°38' W 122°20'0 0.0
2017-Dec-08 10:28N 47°38' W 122°20'0 0.0
2017-Dec-08 09:58N 47°38' W 122°20'0 0.0
2017-Dec-08 09:28N 47°38' W 122°20'0 0.0
2017-Dec-08 08:55N 47°38' W 122°20'0 0.0
2017-Dec-08 08:28N 47°38' W 122°20'0 0.0
2017-Dec-08 07:58N 47°38' W 122°20'0 0.0
2017-Dec-08 07:28N 47°38' W 122°20'0 0.0
2017-Dec-07 23:37N 47°38' W 122°20'0 0.0
2017-Dec-07 23:28N 47°38' W 122°20'0 0.0
2017-Dec-07 22:58N 47°38' W 122°20'0 0.0
2017-Dec-07 21:01N 47°38' W 122°20'0 0.0
2017-Dec-07 20:58N 47°38' W 122°20'0 0.0
2017-Dec-07 20:28N 47°38' W 122°20'0 0.0
2017-Dec-07 19:58N 47°38' W 122°20'0 0.0
2017-Dec-07 19:28N 47°38' W 122°20'0 0.0
2017-Dec-07 18:58N 47°38' W 122°20'0 0.0
2017-Dec-07 18:10N 47°38' W 122°20'0 0.0
2017-Dec-07 17:58N 47°38' W 122°20'0 0.0
2017-Dec-07 13:49N 47°38' W 122°20'0 0.0
2017-Dec-07 13:28N 47°38' W 122°20'0 0.0
2017-Dec-07 12:58N 47°38' W 122°20'0 0.0
2017-Dec-07 12:28N 47°38' W 122°20'0 0.0
2017-Dec-07 11:55N 47°38' W 122°20'0 0.0
2017-Dec-07 11:25N 47°38' W 122°20'0 0.0
2017-Dec-07 10:58N 47°38' W 122°20'0 0.0
2017-Dec-07 10:28N 47°38' W 122°20'0 0.0
2017-Dec-07 09:58N 47°38' W 122°20'0 0.0
2017-Dec-07 09:28N 47°38' W 122°20'0 0.0
2017-Dec-07 08:58N 47°38' W 122°20'0 0.0
2017-Dec-07 08:28N 47°38' W 122°20'0 0.0
2017-Dec-07 07:55N 47°38' W 122°20'0 0.0
2017-Dec-07 07:28N 47°38' W 122°20'0 0.0
2017-Dec-07 06:58N 47°38' W 122°20'0 0.0
2017-Dec-06 23:43N 47°38' W 122°20'0 0.0
2017-Dec-06 23:28N 47°38' W 122°20'0 0.0
2017-Dec-06 22:58N 47°38' W 122°20'0 0.0
2017-Dec-06 22:28N 47°38' W 122°20'0 0.0
2017-Dec-06 21:58N 47°38' W 122°20'  

Dump ship's entire track history